sensor_id;sensor_type;location;lat;lon;timestamp;temperature;humidity
40996;DHT22;26723;57.478;12.066;2023-05-15T00:02:18;12.00;99.90
40996;DHT22;26723;57.478;12.066;2023-05-15T00:05:27;12.00;99.90
40996;DHT22;26723;57.478;12.066;2023-05-15T00:08:35;12.00;99.90
40996;DHT22;26723;57.478;12.066;2023-05-15T00:11:44;11.90;99.90
40996;DHT22;26723;57.478;12.066;2023-05-15T00:14:53;11.80;99.90
40996;DHT22;26723;57.478;12.066;2023-05-15T00:18:02;11.90;99.90
40996;DHT22;26723;57.478;12.066;2023-05-15T00:21:10;11.90;99.90
40996;DHT22;26723;57.478;12.066;2023-05-15T00:24:20;12.00;99.90
40996;DHT22;26723;57.478;12.066;2023-05-15T00:27:29;11.90;99.90
40996;DHT22;26723;57.478;12.066;2023-05-15T00:30:38;12.00;99.90
40996;DHT22;26723;57.478;12.066;2023-05-15T00:33:47;11.80;99.90
40996;DHT22;26723;57.478;12.066;2023-05-15T00:36:55;11.70;99.90
40996;DHT22;26723;57.478;12.066;2023-05-15T00:40:04;11.40;99.90
40996;DHT22;26723;57.478;12.066;2023-05-15T00:43:14;11.30;99.90
40996;DHT22;26723;57.478;12.066;2023-05-15T00:46:25;11.40;99.90
40996;DHT22;26723;57.478;12.066;2023-05-15T00:49:35;11.40;99.90
40996;DHT22;26723;57.478;12.066;2023-05-15T00:52:45;11.50;99.90
40996;DHT22;26723;57.478;12.066;2023-05-15T00:55:56;11.50;99.90
40996;DHT22;26723;57.478;12.066;2023-05-15T00:59:05;11.30;99.90
40996;DHT22;26723;57.478;12.066;2023-05-15T01:02:16;11.20;99.90
40996;DHT22;26723;57.478;12.066;2023-05-15T01:05:25;11.20;99.90
40996;DHT22;26723;57.478;12.066;2023-05-15T01:08:37;11.20;99.90
40996;DHT22;26723;57.478;12.066;2023-05-15T01:11:53;11.10;99.90
40996;DHT22;26723;57.478;12.066;2023-05-15T01:15:01;11.00;99.90
40996;DHT22;26723;57.478;12.066;2023-05-15T01:18:11;10.90;99.90
40996;DHT22;26723;57.478;12.066;2023-05-15T01:25:19;10.80;99.90
40996;DHT22;26723;57.478;12.066;2023-05-15T01:28:39;10.80;99.90
40996;DHT22;26723;57.478;12.066;2023-05-15T01:31:56;10.80;99.90
40996;DHT22;26723;57.478;12.066;2023-05-15T01:35:09;10.80;99.90
40996;DHT22;26723;57.478;12.066;2023-05-15T01:38:25;10.80;99.90
40996;DHT22;26723;57.478;12.066;2023-05-15T01:41:41;10.80;99.90
40996;DHT22;26723;57.478;12.066;2023-05-15T01:44:54;10.90;99.90
40996;DHT22;26723;57.478;12.066;2023-05-15T01:48:07;10.90;99.90
40996;DHT22;26723;57.478;12.066;2023-05-15T01:51:17;10.80;99.90
40996;DHT22;26723;57.478;12.066;2023-05-15T01:54:28;10.80;99.90
40996;DHT22;26723;57.478;12.066;2023-05-15T01:57:37;10.90;99.90
40996;DHT22;26723;57.478;12.066;2023-05-15T02:00:49;10.90;99.90
40996;DHT22;26723;57.478;12.066;2023-05-15T02:03:59;10.80;99.90
40996;DHT22;26723;57.478;12.066;2023-05-15T02:07:10;10.80;99.90
40996;DHT22;26723;57.478;12.066;2023-05-15T02:10:20;10.70;99.90
40996;DHT22;26723;57.478;12.066;2023-05-15T02:13:29;10.50;99.90
40996;DHT22;26723;57.478;12.066;2023-05-15T02:16:39;10.40;99.90
40996;DHT22;26723;57.478;12.066;2023-05-15T02:19:48;10.20;99.90
40996;DHT22;26723;57.478;12.066;2023-05-15T02:22:57;10.20;99.90
40996;DHT22;26723;57.478;12.066;2023-05-15T02:26:22;10.30;99.90
40996;DHT22;26723;57.478;12.066;2023-05-15T02:29:37;10.40;99.90
40996;DHT22;26723;57.478;12.066;2023-05-15T02:32:55;10.40;99.90
40996;DHT22;26723;57.478;12.066;2023-05-15T02:36:08;10.40;99.90
40996;DHT22;26723;57.478;12.066;2023-05-15T02:39:19;10.20;99.90
40996;DHT22;26723;57.478;12.066;2023-05-15T02:42:30;10.20;99.90
40996;DHT22;26723;57.478;12.066;2023-05-15T02:45:39;10.10;99.90
40996;DHT22;26723;57.478;12.066;2023-05-15T02:48:49;10.20;99.90
40996;DHT22;26723;57.478;12.066;2023-05-15T02:51:58;10.30;99.90
40996;DHT22;26723;57.478;12.066;2023-05-15T02:55:08;10.30;99.90
40996;DHT22;26723;57.478;12.066;2023-05-15T02:58:17;10.40;99.90
40996;DHT22;26723;57.478;12.066;2023-05-15T03:01:25;10.40;99.90
40996;DHT22;26723;57.478;12.066;2023-05-15T03:04:35;10.40;99.90
40996;DHT22;26723;57.478;12.066;2023-05-15T03:07:44;10.40;99.90
40996;DHT22;26723;57.478;12.066;2023-05-15T03:10:52;10.40;99.90
40996;DHT22;26723;57.478;12.066;2023-05-15T03:14:01;10.40;99.90
40996;DHT22;26723;57.478;12.066;2023-05-15T03:17:09;10.40;99.90
40996;DHT22;26723;57.478;12.066;2023-05-15T03:20:19;10.40;99.90
40996;DHT22;26723;57.478;12.066;2023-05-15T03:23:27;10.50;99.90
40996;DHT22;26723;57.478;12.066;2023-05-15T03:26:37;10.50;99.90
40996;DHT22;26723;57.478;12.066;2023-05-15T03:29:46;10.50;99.90
40996;DHT22;26723;57.478;12.066;2023-05-15T03:32:56;10.50;99.90
40996;DHT22;26723;57.478;12.066;2023-05-15T03:36:07;10.60;99.90
40996;DHT22;26723;57.478;12.066;2023-05-15T03:39:16;10.60;99.90
40996;DHT22;26723;57.478;12.066;2023-05-15T03:42:24;10.60;99.90
40996;DHT22;26723;57.478;12.066;2023-05-15T03:45:34;10.60;99.90
40996;DHT22;26723;57.478;12.066;2023-05-15T03:48:42;10.70;99.90
40996;DHT22;26723;57.478;12.066;2023-05-15T03:51:52;10.70;99.90
40996;DHT22;26723;57.478;12.066;2023-05-15T03:55:00;10.70;99.90
40996;DHT22;26723;57.478;12.066;2023-05-15T03:58:09;10.80;99.90
40996;DHT22;26723;57.478;12.066;2023-05-15T04:01:17;10.90;99.90
40996;DHT22;26723;57.478;12.066;2023-05-15T04:04:26;10.90;99.90
40996;DHT22;26723;57.478;12.066;2023-05-15T04:07:36;11.00;99.90
40996;DHT22;26723;57.478;12.066;2023-05-15T04:10:44;11.00;99.90
40996;DHT22;26723;57.478;12.066;2023-05-15T04:13:53;11.10;99.90
40996;DHT22;26723;57.478;12.066;2023-05-15T04:17:01;11.10;99.90
40996;DHT22;26723;57.478;12.066;2023-05-15T04:20:13;11.20;99.90
40996;DHT22;26723;57.478;12.066;2023-05-15T04:23:24;11.30;99.90
40996;DHT22;26723;57.478;12.066;2023-05-15T04:26:32;11.40;99.90
40996;DHT22;26723;57.478;12.066;2023-05-15T04:29:41;11.50;99.90
40996;DHT22;26723;57.478;12.066;2023-05-15T04:32:49;11.50;99.90
40996;DHT22;26723;57.478;12.066;2023-05-15T04:35:59;11.60;99.90
40996;DHT22;26723;57.478;12.066;2023-05-15T04:39:09;11.70;99.90
40996;DHT22;26723;57.478;12.066;2023-05-15T04:42:18;11.70;99.90
40996;DHT22;26723;57.478;12.066;2023-05-15T04:45:26;11.80;99.90
40996;DHT22;26723;57.478;12.066;2023-05-15T04:48:35;11.90;99.90
40996;DHT22;26723;57.478;12.066;2023-05-15T04:51:43;12.00;99.90
40996;DHT22;26723;57.478;12.066;2023-05-15T04:54:53;12.00;99.90
40996;DHT22;26723;57.478;12.066;2023-05-15T04:58:02;12.10;99.90
40996;DHT22;26723;57.478;12.066;2023-05-15T05:01:10;12.20;99.90
40996;DHT22;26723;57.478;12.066;2023-05-15T05:04:19;12.30;99.90
40996;DHT22;26723;57.478;12.066;2023-05-15T05:07:27;12.40;99.90
40996;DHT22;26723;57.478;12.066;2023-05-15T05:10:37;12.50;99.90
40996;DHT22;26723;57.478;12.066;2023-05-15T05:13:45;12.50;99.90
40996;DHT22;26723;57.478;12.066;2023-05-15T05:16:54;12.60;99.90
40996;DHT22;26723;57.478;12.066;2023-05-15T05:20:02;12.70;99.90
40996;DHT22;26723;57.478;12.066;2023-05-15T05:23:12;12.90;99.90
40996;DHT22;26723;57.478;12.066;2023-05-15T05:26:23;12.90;99.90
40996;DHT22;26723;57.478;12.066;2023-05-15T05:29:32;13.00;99.90
40996;DHT22;26723;57.478;12.066;2023-05-15T05:32:41;13.20;99.90
40996;DHT22;26723;57.478;12.066;2023-05-15T05:35:49;13.30;99.90
40996;DHT22;26723;57.478;12.066;2023-05-15T05:38:58;13.50;99.90
40996;DHT22;26723;57.478;12.066;2023-05-15T05:42:08;13.60;99.90
40996;DHT22;26723;57.478;12.066;2023-05-15T05:45:17;13.80;99.90
40996;DHT22;26723;57.478;12.066;2023-05-15T05:48:25;14.00;99.90
40996;DHT22;26723;57.478;12.066;2023-05-15T05:51:34;14.20;99.90
40996;DHT22;26723;57.478;12.066;2023-05-15T05:54:44;14.30;99.90
40996;DHT22;26723;57.478;12.066;2023-05-15T05:57:55;14.60;99.90
40996;DHT22;26723;57.478;12.066;2023-05-15T06:01:04;14.80;99.90
40996;DHT22;26723;57.478;12.066;2023-05-15T06:04:12;15.00;99.90
40996;DHT22;26723;57.478;12.066;2023-05-15T06:07:24;15.40;99.90
40996;DHT22;26723;57.478;12.066;2023-05-15T06:10:32;15.60;99.90
40996;DHT22;26723;57.478;12.066;2023-05-15T06:13:42;15.90;99.90
40996;DHT22;26723;57.478;12.066;2023-05-15T06:16:50;16.20;99.90
40996;DHT22;26723;57.478;12.066;2023-05-15T06:19:59;16.50;99.90
40996;DHT22;26723;57.478;12.066;2023-05-15T06:23:07;17.40;99.90
40996;DHT22;26723;57.478;12.066;2023-05-15T06:26:16;19.80;99.90
40996;DHT22;26723;57.478;12.066;2023-05-15T06:29:25;21.60;99.90
40996;DHT22;26723;57.478;12.066;2023-05-15T06:32:34;22.80;99.90
40996;DHT22;26723;57.478;12.066;2023-05-15T06:35:42;23.90;99.90
40996;DHT22;26723;57.478;12.066;2023-05-15T06:38:51;24.20;99.90
40996;DHT22;26723;57.478;12.066;2023-05-15T06:41:59;24.30;99.90
40996;DHT22;26723;57.478;12.066;2023-05-15T06:45:10;24.00;99.90
40996;DHT22;26723;57.478;12.066;2023-05-15T06:48:19;23.50;99.90
40996;DHT22;26723;57.478;12.066;2023-05-15T06:51:27;22.60;99.90
40996;DHT22;26723;57.478;12.066;2023-05-15T06:54:35;22.70;99.90
40996;DHT22;26723;57.478;12.066;2023-05-15T06:57:46;22.30;99.90
40996;DHT22;26723;57.478;12.066;2023-05-15T07:00:56;21.80;99.90
40996;DHT22;26723;57.478;12.066;2023-05-15T07:04:05;21.50;99.90
40996;DHT22;26723;57.478;12.066;2023-05-15T07:07:14;21.30;99.90
40996;DHT22;26723;57.478;12.066;2023-05-15T07:10:22;22.40;99.90
40996;DHT22;26723;57.478;12.066;2023-05-15T07:13:32;23.80;99.90
40996;DHT22;26723;57.478;12.066;2023-05-15T07:16:41;24.70;99.90
40996;DHT22;26723;57.478;12.066;2023-05-15T07:19:50;24.80;99.90
40996;DHT22;26723;57.478;12.066;2023-05-15T07:22:58;24.30;99.90
40996;DHT22;26723;57.478;12.066;2023-05-15T07:26:06;23.80;99.90
40996;DHT22;26723;57.478;12.066;2023-05-15T07:29:22;24.00;99.90
40996;DHT22;26723;57.478;12.066;2023-05-15T07:32:32;23.80;99.90
40996;DHT22;26723;57.478;12.066;2023-05-15T07:35:41;24.00;99.90
40996;DHT22;26723;57.478;12.066;2023-05-15T07:38:49;24.30;99.90
40996;DHT22;26723;57.478;12.066;2023-05-15T07:41:57;24.90;99.90
40996;DHT22;26723;57.478;12.066;2023-05-15T07:45:07;24.30;99.90
40996;DHT22;26723;57.478;12.066;2023-05-15T07:48:18;24.20;99.90
40996;DHT22;26723;57.478;12.066;2023-05-15T07:51:26;25.20;99.90
40996;DHT22;26723;57.478;12.066;2023-05-15T07:54:34;25.50;99.90
40996;DHT22;26723;57.478;12.066;2023-05-15T07:57:43;25.80;99.90
40996;DHT22;26723;57.478;12.066;2023-05-15T08:00:51;26.00;98.50
40996;DHT22;26723;57.478;12.066;2023-05-15T08:04:02;26.60;98.30
40996;DHT22;26723;57.478;12.066;2023-05-15T08:07:11;26.50;97.60
40996;DHT22;26723;57.478;12.066;2023-05-15T08:10:20;27.00;98.10
40996;DHT22;26723;57.478;12.066;2023-05-15T08:13:28;26.80;96.90
40996;DHT22;26723;57.478;12.066;2023-05-15T08:16:37;27.10;96.00
40996;DHT22;26723;57.478;12.066;2023-05-15T08:19:47;27.20;96.00
40996;DHT22;26723;57.478;12.066;2023-05-15T08:22:56;26.80;94.10
40996;DHT22;26723;57.478;12.066;2023-05-15T08:26:04;25.70;95.50
40996;DHT22;26723;57.478;12.066;2023-05-15T08:29:13;25.40;96.50
40996;DHT22;26723;57.478;12.066;2023-05-15T08:32:23;25.20;95.30
40996;DHT22;26723;57.478;12.066;2023-05-15T08:35:34;24.90;95.50
40996;DHT22;26723;57.478;12.066;2023-05-15T08:38:43;25.20;96.10
40996;DHT22;26723;57.478;12.066;2023-05-15T08:41:55;25.30;97.10
40996;DHT22;26723;57.478;12.066;2023-05-15T08:45:05;25.30;98.30
40996;DHT22;26723;57.478;12.066;2023-05-15T08:48:16;25.50;98.00
40996;DHT22;26723;57.478;12.066;2023-05-15T08:51:27;26.00;96.70
40996;DHT22;26723;57.478;12.066;2023-05-15T08:54:37;26.20;96.50
40996;DHT22;26723;57.478;12.066;2023-05-15T08:57:46;26.20;97.60
40996;DHT22;26723;57.478;12.066;2023-05-15T09:00:55;26.20;98.20
40996;DHT22;26723;57.478;12.066;2023-05-15T09:04:04;26.60;95.10
40996;DHT22;26723;57.478;12.066;2023-05-15T09:07:14;26.80;96.40
40996;DHT22;26723;57.478;12.066;2023-05-15T09:10:23;25.80;94.80
40996;DHT22;26723;57.478;12.066;2023-05-15T09:13:32;26.40;96.90
40996;DHT22;26723;57.478;12.066;2023-05-15T09:16:40;27.50;94.00
40996;DHT22;26723;57.478;12.066;2023-05-15T09:19:48;27.90;93.30
40996;DHT22;26723;57.478;12.066;2023-05-15T09:23:00;27.90;93.20
40996;DHT22;26723;57.478;12.066;2023-05-15T09:26:11;27.50;93.10
40996;DHT22;26723;57.478;12.066;2023-05-15T09:29:19;28.10;94.20
40996;DHT22;26723;57.478;12.066;2023-05-15T09:32:28;28.30;93.00
40996;DHT22;26723;57.478;12.066;2023-05-15T09:35:37;27.90;92.60
40996;DHT22;26723;57.478;12.066;2023-05-15T09:38:48;27.50;92.50
40996;DHT22;26723;57.478;12.066;2023-05-15T09:42:05;26.90;92.20
40996;DHT22;26723;57.478;12.066;2023-05-15T09:45:16;26.30;91.60
40996;DHT22;26723;57.478;12.066;2023-05-15T09:48:25;25.50;92.20
40996;DHT22;26723;57.478;12.066;2023-05-15T09:51:33;25.10;93.20
40996;DHT22;26723;57.478;12.066;2023-05-15T09:54:44;24.90;93.10
40996;DHT22;26723;57.478;12.066;2023-05-15T09:58:09;25.00;93.90
40996;DHT22;26723;57.478;12.066;2023-05-15T10:01:19;24.80;93.40
40996;DHT22;26723;57.478;12.066;2023-05-15T10:04:33;24.50;93.60
40996;DHT22;26723;57.478;12.066;2023-05-15T10:07:42;24.50;93.60
40996;DHT22;26723;57.478;12.066;2023-05-15T10:10:52;24.40;93.40
40996;DHT22;26723;57.478;12.066;2023-05-15T10:14:02;24.20;92.70
40996;DHT22;26723;57.478;12.066;2023-05-15T10:17:11;24.10;92.60
40996;DHT22;26723;57.478;12.066;2023-05-15T10:20:22;24.00;92.10
40996;DHT22;26723;57.478;12.066;2023-05-15T10:23:34;24.00;92.30
40996;DHT22;26723;57.478;12.066;2023-05-15T10:26:46;24.00;93.10
40996;DHT22;26723;57.478;12.066;2023-05-15T10:29:55;24.00;94.40
40996;DHT22;26723;57.478;12.066;2023-05-15T10:33:06;23.90;93.50
40996;DHT22;26723;57.478;12.066;2023-05-15T10:36:15;23.90;93.80
40996;DHT22;26723;57.478;12.066;2023-05-15T10:39:26;24.60;94.50
40996;DHT22;26723;57.478;12.066;2023-05-15T10:42:37;24.90;93.60
40996;DHT22;26723;57.478;12.066;2023-05-15T10:45:48;25.30;94.70
40996;DHT22;26723;57.478;12.066;2023-05-15T10:48:58;25.10;93.00
40996;DHT22;26723;57.478;12.066;2023-05-15T10:52:08;24.90;94.70
40996;DHT22;26723;57.478;12.066;2023-05-15T10:55:17;25.10;93.60
40996;DHT22;26723;57.478;12.066;2023-05-15T10:58:27;25.60;92.80
40996;DHT22;26723;57.478;12.066;2023-05-15T11:01:38;25.60;91.80
40996;DHT22;26723;57.478;12.066;2023-05-15T11:04:47;25.70;92.40
40996;DHT22;26723;57.478;12.066;2023-05-15T11:08:23;26.00;92.10
40996;DHT22;26723;57.478;12.066;2023-05-15T11:11:52;26.20;91.50
40996;DHT22;26723;57.478;12.066;2023-05-15T11:15:25;26.30;91.00
40996;DHT22;26723;57.478;12.066;2023-05-15T11:18:35;26.40;90.90
40996;DHT22;26723;57.478;12.066;2023-05-15T11:21:44;26.00;90.90
40996;DHT22;26723;57.478;12.066;2023-05-15T11:24:55;25.60;91.80
40996;DHT22;26723;57.478;12.066;2023-05-15T11:28:04;25.20;91.00
40996;DHT22;26723;57.478;12.066;2023-05-15T11:31:15;25.20;91.20
40996;DHT22;26723;57.478;12.066;2023-05-15T11:34:32;25.30;92.30
40996;DHT22;26723;57.478;12.066;2023-05-15T11:37:44;25.20;91.70
40996;DHT22;26723;57.478;12.066;2023-05-15T11:40:54;25.30;91.80
40996;DHT22;26723;57.478;12.066;2023-05-15T11:44:04;25.60;91.90
40996;DHT22;26723;57.478;12.066;2023-05-15T11:47:14;25.80;91.80
40996;DHT22;26723;57.478;12.066;2023-05-15T11:50:23;25.70;91.40
40996;DHT22;26723;57.478;12.066;2023-05-15T11:53:32;25.80;91.00
40996;DHT22;26723;57.478;12.066;2023-05-15T11:56:42;25.50;91.30
40996;DHT22;26723;57.478;12.066;2023-05-15T11:59:53;25.50;91.20
40996;DHT22;26723;57.478;12.066;2023-05-15T12:03:03;25.10;91.10
40996;DHT22;26723;57.478;12.066;2023-05-15T12:06:11;24.80;90.90
40996;DHT22;26723;57.478;12.066;2023-05-15T12:09:19;24.30;91.40
40996;DHT22;26723;57.478;12.066;2023-05-15T12:12:34;24.20;91.90
40996;DHT22;26723;57.478;12.066;2023-05-15T12:15:44;24.40;92.20
40996;DHT22;26723;57.478;12.066;2023-05-15T12:18:55;24.50;92.80
40996;DHT22;26723;57.478;12.066;2023-05-15T12:22:04;23.70;92.40
40996;DHT22;26723;57.478;12.066;2023-05-15T12:25:14;22.80;93.00
40996;DHT22;26723;57.478;12.066;2023-05-15T12:28:23;22.10;93.40
40996;DHT22;26723;57.478;12.066;2023-05-15T12:31:33;21.80;93.80
40996;DHT22;26723;57.478;12.066;2023-05-15T12:34:44;22.30;93.90
40996;DHT22;26723;57.478;12.066;2023-05-15T12:37:52;22.50;93.90
40996;DHT22;26723;57.478;12.066;2023-05-15T12:41:01;22.10;94.20
40996;DHT22;26723;57.478;12.066;2023-05-15T12:44:15;21.60;94.80
40996;DHT22;26723;57.478;12.066;2023-05-15T12:47:25;21.40;96.20
40996;DHT22;26723;57.478;12.066;2023-05-15T12:50:35;21.60;97.30
40996;DHT22;26723;57.478;12.066;2023-05-15T12:53:44;21.60;96.80
40996;DHT22;26723;57.478;12.066;2023-05-15T12:56:54;21.80;96.60
40996;DHT22;26723;57.478;12.066;2023-05-15T13:00:04;21.80;95.50
40996;DHT22;26723;57.478;12.066;2023-05-15T13:03:14;21.80;96.20
40996;DHT22;26723;57.478;12.066;2023-05-15T13:06:23;22.10;95.60
40996;DHT22;26723;57.478;12.066;2023-05-15T13:10:01;22.10;95.70
40996;DHT22;26723;57.478;12.066;2023-05-15T13:13:12;22.20;95.10
40996;DHT22;26723;57.478;12.066;2023-05-15T13:16:21;22.50;94.60
40996;DHT22;26723;57.478;12.066;2023-05-15T13:19:31;22.60;95.90
40996;DHT22;26723;57.478;12.066;2023-05-15T13:22:41;22.50;92.80
40996;DHT22;26723;57.478;12.066;2023-05-15T13:25:49;22.40;94.60
40996;DHT22;26723;57.478;12.066;2023-05-15T13:28:57;22.50;94.10
40996;DHT22;26723;57.478;12.066;2023-05-15T13:32:07;22.50;93.70
40996;DHT22;26723;57.478;12.066;2023-05-15T13:35:15;22.40;94.60
40996;DHT22;26723;57.478;12.066;2023-05-15T13:38:25;22.30;94.60
40996;DHT22;26723;57.478;12.066;2023-05-15T13:41:35;22.30;94.40
40996;DHT22;26723;57.478;12.066;2023-05-15T13:44:44;22.20;93.60
40996;DHT22;26723;57.478;12.066;2023-05-15T13:47:53;22.20;92.90
40996;DHT22;26723;57.478;12.066;2023-05-15T13:51:01;22.30;92.60
40996;DHT22;26723;57.478;12.066;2023-05-15T13:54:11;22.30;92.90
40996;DHT22;26723;57.478;12.066;2023-05-15T13:57:19;22.20;92.60
40996;DHT22;26723;57.478;12.066;2023-05-15T14:00:28;22.40;93.20
40996;DHT22;26723;57.478;12.066;2023-05-15T14:03:36;22.50;93.20
40996;DHT22;26723;57.478;12.066;2023-05-15T14:06:45;22.60;92.40
40996;DHT22;26723;57.478;12.066;2023-05-15T14:09:54;22.70;93.80
40996;DHT22;26723;57.478;12.066;2023-05-15T14:13:03;22.70;93.80
40996;DHT22;26723;57.478;12.066;2023-05-15T14:16:11;22.80;92.20
40996;DHT22;26723;57.478;12.066;2023-05-15T14:19:20;22.80;92.50
40996;DHT22;26723;57.478;12.066;2023-05-15T14:22:28;22.80;93.10
40996;DHT22;26723;57.478;12.066;2023-05-15T14:25:39;22.60;92.70
40996;DHT22;26723;57.478;12.066;2023-05-15T14:28:47;22.60;93.30
40996;DHT22;26723;57.478;12.066;2023-05-15T14:31:56;22.60;92.20
40996;DHT22;26723;57.478;12.066;2023-05-15T14:35:04;22.80;94.00
40996;DHT22;26723;57.478;12.066;2023-05-15T14:38:13;22.80;94.60
40996;DHT22;26723;57.478;12.066;2023-05-15T14:41:23;22.60;94.40
40996;DHT22;26723;57.478;12.066;2023-05-15T14:44:32;22.40;94.80
40996;DHT22;26723;57.478;12.066;2023-05-15T14:47:40;22.20;94.20
40996;DHT22;26723;57.478;12.066;2023-05-15T14:50:49;21.90;94.70
40996;DHT22;26723;57.478;12.066;2023-05-15T14:53:58;21.80;95.10
40996;DHT22;26723;57.478;12.066;2023-05-15T14:57:08;21.90;95.20
40996;DHT22;26723;57.478;12.066;2023-05-15T15:00:17;22.00;94.60
40996;DHT22;26723;57.478;12.066;2023-05-15T15:03:25;22.00;94.90
40996;DHT22;26723;57.478;12.066;2023-05-15T15:06:36;22.00;95.10
40996;DHT22;26723;57.478;12.066;2023-05-15T15:09:44;22.10;95.30
40996;DHT22;26723;57.478;12.066;2023-05-15T15:12:54;22.10;94.90
40996;DHT22;26723;57.478;12.066;2023-05-15T15:16:03;22.20;95.20
40996;DHT22;26723;57.478;12.066;2023-05-15T15:19:12;22.20;95.00
40996;DHT22;26723;57.478;12.066;2023-05-15T15:22:25;22.30;95.00
40996;DHT22;26723;57.478;12.066;2023-05-15T15:25:33;22.40;95.20
40996;DHT22;26723;57.478;12.066;2023-05-15T15:28:43;22.30;95.20
40996;DHT22;26723;57.478;12.066;2023-05-15T15:31:51;22.30;95.00
40996;DHT22;26723;57.478;12.066;2023-05-15T15:35:00;22.20;95.10
40996;DHT22;26723;57.478;12.066;2023-05-15T15:38:09;21.00;98.50
40996;DHT22;26723;57.478;12.066;2023-05-15T15:41:19;20.50;99.90
40996;DHT22;26723;57.478;12.066;2023-05-15T15:44:32;19.80;99.90
40996;DHT22;26723;57.478;12.066;2023-05-15T15:47:40;19.60;99.90
40996;DHT22;26723;57.478;12.066;2023-05-15T15:50:49;19.70;99.90
40996;DHT22;26723;57.478;12.066;2023-05-15T15:53:58;19.60;99.90
40996;DHT22;26723;57.478;12.066;2023-05-15T15:57:07;19.70;99.90
40996;DHT22;26723;57.478;12.066;2023-05-15T16:00:17;19.80;99.90
40996;DHT22;26723;57.478;12.066;2023-05-15T16:03:25;19.70;99.90
40996;DHT22;26723;57.478;12.066;2023-05-15T16:06:34;19.90;99.90
40996;DHT22;26723;57.478;12.066;2023-05-15T16:09:43;19.80;99.90
40996;DHT22;26723;57.478;12.066;2023-05-15T16:12:55;19.90;99.90
40996;DHT22;26723;57.478;12.066;2023-05-15T16:16:05;20.00;99.90
40996;DHT22;26723;57.478;12.066;2023-05-15T16:19:13;19.90;99.90
40996;DHT22;26723;57.478;12.066;2023-05-15T16:22:22;19.90;99.90
40996;DHT22;26723;57.478;12.066;2023-05-15T16:25:31;19.70;99.90
40996;DHT22;26723;57.478;12.066;2023-05-15T16:28:39;19.50;99.90
40996;DHT22;26723;57.478;12.066;2023-05-15T16:31:49;19.40;99.90
40996;DHT22;26723;57.478;12.066;2023-05-15T16:34:57;19.40;99.90
40996;DHT22;26723;57.478;12.066;2023-05-15T16:38:05;19.60;99.90
40996;DHT22;26723;57.478;12.066;2023-05-15T16:41:14;19.70;99.90
40996;DHT22;26723;57.478;12.066;2023-05-15T16:44:22;19.50;99.90
40996;DHT22;26723;57.478;12.066;2023-05-15T16:47:32;19.50;99.90
40996;DHT22;26723;57.478;12.066;2023-05-15T16:50:40;19.70;99.90
40996;DHT22;26723;57.478;12.066;2023-05-15T16:53:49;19.60;99.90
40996;DHT22;26723;57.478;12.066;2023-05-15T16:56:58;19.70;99.90
40996;DHT22;26723;57.478;12.066;2023-05-15T17:00:08;19.50;99.90
40996;DHT22;26723;57.478;12.066;2023-05-15T17:03:18;19.60;99.90
40996;DHT22;26723;57.478;12.066;2023-05-15T17:06:26;19.40;99.90
40996;DHT22;26723;57.478;12.066;2023-05-15T17:09:34;19.40;99.90
40996;DHT22;26723;57.478;12.066;2023-05-15T17:12:44;19.40;99.90
40996;DHT22;26723;57.478;12.066;2023-05-15T17:15:53;19.30;99.90
40996;DHT22;26723;57.478;12.066;2023-05-15T17:19:03;19.20;99.90
40996;DHT22;26723;57.478;12.066;2023-05-15T17:22:11;19.30;99.90
40996;DHT22;26723;57.478;12.066;2023-05-15T17:25:19;19.40;99.90
40996;DHT22;26723;57.478;12.066;2023-05-15T17:28:28;19.40;99.90
40996;DHT22;26723;57.478;12.066;2023-05-15T17:31:37;19.40;99.90
40996;DHT22;26723;57.478;12.066;2023-05-15T17:34:48;19.20;99.90
40996;DHT22;26723;57.478;12.066;2023-05-15T17:37:57;19.00;99.90
40996;DHT22;26723;57.478;12.066;2023-05-15T17:41:06;19.10;99.90
40996;DHT22;26723;57.478;12.066;2023-05-15T17:44:14;19.00;99.90
40996;DHT22;26723;57.478;12.066;2023-05-15T17:47:22;18.90;99.90
40996;DHT22;26723;57.478;12.066;2023-05-15T17:50:33;18.80;99.90
40996;DHT22;26723;57.478;12.066;2023-05-15T17:53:44;18.80;99.90
40996;DHT22;26723;57.478;12.066;2023-05-15T17:56:52;18.80;99.90
40996;DHT22;26723;57.478;12.066;2023-05-15T18:00:00;18.70;99.90
40996;DHT22;26723;57.478;12.066;2023-05-15T18:03:18;18.70;99.90
40996;DHT22;26723;57.478;12.066;2023-05-15T18:06:27;18.70;99.90
40996;DHT22;26723;57.478;12.066;2023-05-15T18:09:36;18.70;99.90
40996;DHT22;26723;57.478;12.066;2023-05-15T18:12:45;18.60;99.90
40996;DHT22;26723;57.478;12.066;2023-05-15T18:15:53;18.60;99.90
40996;DHT22;26723;57.478;12.066;2023-05-15T18:19:02;18.50;99.90
40996;DHT22;26723;57.478;12.066;2023-05-15T18:22:12;18.30;99.90
40996;DHT22;26723;57.478;12.066;2023-05-15T18:25:20;18.20;99.90
40996;DHT22;26723;57.478;12.066;2023-05-15T18:28:29;18.20;99.90
40996;DHT22;26723;57.478;12.066;2023-05-15T18:31:38;18.10;99.90
40996;DHT22;26723;57.478;12.066;2023-05-15T18:34:46;18.00;99.90
40996;DHT22;26723;57.478;12.066;2023-05-15T18:37:56;18.00;99.90
40996;DHT22;26723;57.478;12.066;2023-05-15T18:41:04;17.80;99.90
40996;DHT22;26723;57.478;12.066;2023-05-15T18:44:12;17.80;99.90
40996;DHT22;26723;57.478;12.066;2023-05-15T18:47:21;17.70;99.90
40996;DHT22;26723;57.478;12.066;2023-05-15T18:50:29;17.70;99.90
40996;DHT22;26723;57.478;12.066;2023-05-15T18:53:39;17.50;99.90
40996;DHT22;26723;57.478;12.066;2023-05-15T18:56:48;17.40;99.90
40996;DHT22;26723;57.478;12.066;2023-05-15T18:59:56;17.40;99.90
40996;DHT22;26723;57.478;12.066;2023-05-15T19:03:06;17.20;99.90
40996;DHT22;26723;57.478;12.066;2023-05-15T19:06:15;17.20;99.90
40996;DHT22;26723;57.478;12.066;2023-05-15T19:09:27;17.20;99.90
40996;DHT22;26723;57.478;12.066;2023-05-15T19:12:36;17.10;99.90
40996;DHT22;26723;57.478;12.066;2023-05-15T19:15:49;17.10;99.90
40996;DHT22;26723;57.478;12.066;2023-05-15T19:18:58;17.00;99.90
40996;DHT22;26723;57.478;12.066;2023-05-15T19:22:06;17.00;99.90
40996;DHT22;26723;57.478;12.066;2023-05-15T19:25:16;16.90;99.90
40996;DHT22;26723;57.478;12.066;2023-05-15T19:28:25;16.80;99.90
40996;DHT22;26723;57.478;12.066;2023-05-15T19:31:33;16.80;99.90
40996;DHT22;26723;57.478;12.066;2023-05-15T19:34:43;16.70;99.90
40996;DHT22;26723;57.478;12.066;2023-05-15T19:37:52;16.70;99.90
40996;DHT22;26723;57.478;12.066;2023-05-15T19:41:01;16.60;99.90
40996;DHT22;26723;57.478;12.066;2023-05-15T19:44:10;16.50;99.90